createdAt,value
2019-04-23T00:01:29.817Z,15.80
2019-04-23T00:04:03.760Z,15.80
2019-04-23T00:09:07.438Z,15.70
2019-04-23T00:11:39.864Z,15.70
2019-04-23T00:14:05.706Z,15.60
2019-04-23T00:16:42.668Z,15.60
2019-04-23T00:19:11.616Z,15.60
2019-04-23T00:21:46.019Z,15.50
2019-04-23T00:24:56.864Z,15.50
2019-04-23T00:27:17.314Z,15.50
2019-04-23T00:29:45.970Z,15.40
2019-04-23T00:36:10.661Z,15.40
2019-04-23T00:40:59.599Z,15.20
2019-04-23T00:43:30.260Z,15.20
2019-04-23T00:45:55.226Z,15.10
2019-04-23T00:51:20.622Z,15.10
2019-04-23T00:53:38.922Z,15.10
2019-04-23T00:56:33.808Z,15.00
2019-04-23T00:58:51.443Z,15.00
2019-04-23T01:01:18.287Z,14.90
2019-04-23T01:03:48.270Z,14.90
2019-04-23T01:06:19.786Z,14.90
2019-04-23T01:08:52.317Z,14.80
2019-04-23T01:13:50.978Z,14.80
2019-04-23T01:16:15.027Z,14.70
2019-04-23T01:21:11.719Z,14.60
2019-04-23T01:24:08.112Z,14.50
2019-04-23T01:27:35.397Z,14.50
2019-04-23T01:29:50.651Z,14.50
2019-04-23T01:32:20.847Z,14.40
2019-04-23T01:35:05.432Z,14.40
2019-04-23T01:37:19.169Z,14.40
2019-04-23T01:39:53.129Z,14.30
2019-04-23T01:42:28.696Z,14.30
2019-04-23T01:45:04.604Z,14.30
2019-04-23T01:47:24.163Z,14.30
2019-04-23T01:50:03.132Z,14.20
2019-04-23T01:52:34.857Z,14.20
2019-04-23T01:55:01.106Z,14.20
2019-04-23T01:57:30.638Z,14.20
2019-04-23T02:00:02.673Z,14.10
2019-04-23T02:02:38.810Z,14.00
2019-04-23T02:05:01.262Z,14.00
2019-04-23T02:07:41.887Z,14.00
2019-04-23T02:10:07.203Z,13.90
2019-04-23T02:12:35.838Z,13.90
2019-04-23T02:15:10.220Z,13.90
2019-04-23T02:17:38.657Z,13.90
2019-04-23T02:20:13.289Z,13.80
2019-04-23T02:25:37.003Z,13.80
2019-04-23T02:30:55.023Z,13.70
2019-04-23T02:38:10.216Z,13.60
2019-04-23T02:40:46.761Z,13.60
2019-04-23T02:43:12.680Z,13.50
2019-04-23T02:45:48.878Z,13.50
2019-04-23T02:55:50.049Z,13.40
2019-04-23T03:01:13.457Z,13.30
2019-04-23T03:03:27.533Z,13.30
2019-04-23T03:05:49.273Z,13.20
2019-04-23T03:10:59.968Z,13.20
2019-04-23T03:16:22.317Z,13.10
2019-04-23T03:19:13.655Z,13.10
2019-04-23T03:21:44.599Z,13.10
2019-04-23T03:27:19.331Z,13.00
2019-04-23T03:29:49.216Z,13.00
2019-04-23T03:32:45.369Z,12.90
2019-04-23T03:39:56.572Z,12.80
2019-04-23T03:44:56.212Z,12.80
2019-04-23T03:50:09.222Z,12.70
2019-04-23T03:57:24.599Z,12.60
2019-04-23T03:59:55.101Z,12.60
2019-04-23T04:04:51.895Z,12.50
2019-04-23T04:09:53.861Z,12.50
2019-04-23T04:17:32.668Z,12.40
2019-04-23T04:20:10.910Z,12.40
2019-04-23T04:22:59.347Z,12.40
2019-04-23T04:25:08.749Z,12.40
2019-04-23T04:27:45.859Z,12.40
2019-04-23T04:30:10.553Z,12.40
2019-04-23T04:32:46.940Z,12.40
2019-04-23T04:45:47.430Z,12.30
2019-04-23T04:48:16.262Z,12.30
2019-04-23T04:50:44.154Z,12.30
2019-04-23T04:58:12.346Z,12.30
2019-04-23T05:00:59.594Z,12.40
2019-04-23T05:08:21.720Z,12.40
2019-04-23T05:11:04.786Z,12.30
2019-04-23T05:15:53.791Z,12.40
2019-04-23T05:18:47.479Z,12.40
2019-04-23T05:21:06.118Z,12.50
2019-04-23T05:23:52.424Z,12.50
2019-04-23T05:26:23.931Z,12.50
2019-04-23T05:28:55.617Z,12.50
2019-04-23T05:36:51.981Z,12.60
2019-04-23T05:39:24.349Z,12.70
2019-04-23T05:41:52.567Z,12.70
2019-04-23T05:44:21.642Z,12.70
2019-04-23T05:48:04.694Z,12.80
2019-04-23T05:49:37.725Z,12.80
2019-04-23T05:51:58.928Z,12.90
2019-04-23T05:54:27.736Z,12.90
2019-04-23T05:56:55.406Z,12.90
2019-04-23T05:59:43.258Z,13.00
2019-04-23T06:01:57.355Z,13.10
2019-04-23T06:07:15.093Z,13.30
2019-04-23T06:09:31.177Z,13.30
2019-04-23T06:14:55.528Z,13.40
2019-04-23T06:17:12.541Z,13.40
2019-04-23T06:19:32.936Z,13.40
2019-04-23T06:22:28.978Z,13.50
2019-04-23T06:24:44.331Z,13.50
2019-04-23T06:27:27.777Z,13.40
2019-04-23T06:29:57.405Z,13.40
2019-04-23T06:32:31.285Z,13.60
2019-04-23T06:35:16.655Z,13.60
2019-04-23T06:37:58.712Z,13.60
2019-04-23T06:40:10.143Z,13.60
2019-04-23T06:42:49.767Z,13.70
2019-04-23T06:45:19.885Z,13.70
2019-04-23T06:47:54.008Z,13.70
2019-04-23T06:50:21.144Z,13.80
2019-04-23T06:52:50.601Z,13.80
2019-04-23T06:55:30.250Z,13.80
2019-04-23T06:58:04.614Z,13.90
2019-04-23T07:00:34.171Z,13.80
2019-04-23T07:03:08.820Z,13.90
2019-04-23T07:06:05.033Z,14.10
2019-04-23T07:08:34.477Z,14.20
2019-04-23T07:11:08.123Z,14.20
2019-04-23T07:13:41.239Z,14.20
2019-04-23T07:16:04.676Z,14.30
2019-04-23T07:18:34.510Z,14.30
2019-04-23T07:21:16.181Z,14.40
2019-04-23T07:23:44.944Z,14.50
2019-04-23T07:26:15.567Z,14.50
2019-04-23T07:28:48.489Z,14.60
2019-04-23T07:33:57.530Z,14.70
2019-04-23T07:39:38.819Z,14.80
2019-04-23T07:42:34.420Z,14.90
2019-04-23T07:45:33.086Z,15.00
2019-04-23T07:53:17.279Z,15.30
2019-04-23T08:06:30.015Z,15.60
2019-04-23T08:08:52.560Z,15.70
2019-04-23T08:13:59.024Z,15.70
2019-04-23T08:16:31.180Z,15.80
2019-04-23T08:18:53.734Z,15.80
2019-04-23T08:21:39.742Z,15.80
2019-04-23T08:24:00.276Z,15.90
2019-04-23T08:27:07.448Z,16.00
2019-04-23T08:29:47.699Z,16.10
2019-04-23T08:32:12.454Z,16.10
2019-04-23T08:34:46.385Z,16.20
2019-04-23T08:39:45.475Z,16.30
2019-04-23T08:45:10.740Z,16.50
2019-04-23T08:47:31.955Z,16.70
2019-04-23T08:50:07.317Z,16.90
2019-04-23T08:52:37.048Z,17.00
2019-04-23T08:55:13.710Z,17.10
2019-04-23T08:57:36.614Z,17.20
2019-04-23T09:00:09.137Z,17.30
2019-04-23T09:02:41.176Z,17.60
2019-04-23T09:07:45.601Z,17.90
2019-04-23T09:10:14.110Z,18.00
2019-04-23T09:12:43.624Z,18.10
2019-04-23T09:15:18.751Z,18.10
2019-04-23T09:17:47.571Z,18.00
2019-04-23T09:22:45.159Z,18.10
2019-04-23T09:25:29.847Z,18.00
2019-04-23T09:27:45.470Z,18.20
2019-04-23T09:30:18.749Z,18.30
2019-04-23T09:32:51.621Z,18.50
2019-04-23T09:35:46.010Z,18.60
2019-04-23T09:38:37.694Z,18.80
2019-04-23T09:44:29.466Z,18.70
2019-04-23T09:46:53.037Z,18.80
2019-04-23T09:49:22.362Z,18.90
2019-04-23T09:51:56.291Z,19.00
2019-04-23T09:54:23.759Z,19.00
2019-04-23T09:59:34.302Z,19.20
2019-04-23T10:02:04.390Z,19.10
2019-04-23T10:04:39.799Z,19.20
2019-04-23T10:07:07.197Z,19.40
2019-04-23T10:09:32.338Z,19.90
2019-04-23T10:12:11.505Z,20.00
2019-04-23T10:14:51.815Z,20.20
2019-04-23T10:17:11.414Z,20.40
2019-04-23T10:19:40.723Z,20.60
2019-04-23T10:22:11.352Z,20.70
2019-04-23T10:24:41.117Z,20.50
2019-04-23T10:27:12.518Z,20.50
2019-04-23T10:29:43.706Z,20.50
2019-04-23T10:32:13.612Z,20.70
2019-04-23T10:34:52.841Z,21.10
2019-04-23T10:37:13.705Z,21.30
2019-04-23T10:39:45.656Z,21.50
2019-04-23T10:42:14.321Z,21.60
2019-04-23T10:45:08.727Z,21.70
2019-04-23T10:48:32.730Z,22.30
2019-04-23T10:54:18.188Z,22.70
2019-04-23T10:59:03.328Z,22.70
2019-04-23T11:01:44.953Z,22.60
2019-04-23T11:04:38.772Z,22.40
2019-04-23T11:06:45.184Z,22.20
2019-04-23T11:09:27.427Z,22.10
2019-04-23T11:11:52.484Z,22.20
2019-04-23T11:14:52.732Z,22.30
2019-04-23T11:17:25.955Z,22.10
2019-04-23T11:19:43.196Z,22.30
2019-04-23T11:22:21.787Z,22.50
2019-04-23T11:27:25.986Z,22.90
2019-04-23T11:29:40.467Z,22.90
2019-04-23T11:35:04.970Z,22.20
2019-04-23T11:37:29.959Z,22.00
2019-04-23T11:42:26.224Z,21.60
2019-04-23T11:45:28.201Z,21.60
2019-04-23T11:48:07.694Z,21.80
2019-04-23T11:50:17.209Z,22.00
2019-04-23T11:52:41.588Z,22.20
2019-04-23T11:55:14.006Z,22.70
2019-04-23T12:00:17.609Z,23.60
2019-04-23T12:02:59.142Z,23.50
2019-04-23T12:05:58.338Z,23.60
2019-04-23T12:14:09.582Z,25.70
2019-04-23T12:16:55.619Z,26.50
2019-04-23T12:19:45.794Z,26.80
2019-04-23T12:21:56.684Z,26.80
2019-04-23T12:24:50.376Z,26.90
2019-04-23T12:29:33.113Z,26.50
2019-04-23T12:32:35.567Z,26.80
2019-04-23T12:42:55.513Z,27.10
2019-04-23T12:47:58.417Z,27.80
2019-04-23T12:50:42.215Z,28.10
2019-04-23T12:52:52.463Z,28.80
2019-04-23T12:55:33.070Z,29.40
2019-04-23T12:57:57.366Z,29.60
2019-04-23T13:00:33.920Z,29.80
2019-04-23T13:03:02.777Z,30.10
2019-04-23T13:05:35.987Z,29.90
2019-04-23T13:08:07.999Z,29.70
2019-04-23T13:10:38.757Z,29.40
2019-04-23T13:13:19.185Z,29.60
2019-04-23T13:18:09.478Z,29.10
2019-04-23T13:20:36.987Z,29.40
2019-04-23T13:23:16.537Z,29.80
2019-04-23T13:38:38.211Z,29.50
2019-04-23T13:48:40.278Z,28.20
2019-04-23T13:51:14.279Z,27.80
2019-04-23T13:56:24.514Z,27.50
2019-04-23T14:03:45.445Z,27.80
2019-04-23T14:06:29.845Z,28.00
2019-04-23T14:11:26.314Z,28.90
2019-04-23T14:16:34.096Z,29.80
2019-04-23T14:21:44.535Z,30.60
2019-04-23T14:29:04.263Z,31.20
2019-04-23T14:31:53.721Z,31.30
2019-04-23T14:34:05.034Z,31.20
2019-04-23T14:36:36.234Z,31.30
2019-04-23T14:39:10.122Z,31.50
2019-04-23T14:42:03.526Z,31.60
2019-04-23T14:44:36.596Z,31.50
2019-04-23T14:47:16.877Z,31.50
2019-04-23T14:49:53.992Z,31.60
2019-04-23T14:52:16.895Z,31.60
2019-04-23T14:55:27.936Z,31.00
2019-04-23T14:57:24.809Z,31.00
2019-04-23T14:59:57.516Z,30.80
2019-04-23T15:02:25.747Z,30.40
2019-04-23T15:04:54.496Z,30.30
2019-04-23T15:07:30.697Z,29.80
2019-04-23T15:10:01.530Z,29.20
2019-04-23T15:12:32.236Z,29.20
2019-04-23T15:15:06.424Z,29.20
2019-04-23T15:17:34.395Z,29.50
2019-04-23T15:20:06.682Z,29.40
2019-04-23T15:22:47.952Z,29.30
2019-04-23T15:25:19.415Z,29.20
2019-04-23T15:30:08.682Z,29.20
2019-04-23T15:35:22.132Z,28.90
2019-04-23T15:40:15.163Z,28.90
2019-04-23T15:42:51.790Z,28.90
2019-04-23T15:45:16.889Z,28.80
2019-04-23T15:47:58.813Z,28.60
2019-04-23T15:50:28.377Z,28.50
2019-04-23T15:55:35.135Z,28.30
2019-04-23T15:58:28.193Z,27.30
2019-04-23T16:01:21.506Z,26.90
2019-04-23T16:03:20.294Z,26.60
2019-04-23T16:05:53.002Z,27.30
2019-04-23T16:08:59.571Z,27.10
2019-04-23T16:21:26.562Z,27.00
2019-04-23T16:31:26.456Z,27.30
2019-04-23T16:35:12.069Z,27.00
2019-04-23T16:43:19.899Z,25.90
2019-04-23T16:46:04.189Z,24.80
2019-04-23T16:48:44.033Z,23.90
2019-04-23T16:51:14.431Z,23.40
2019-04-23T16:53:27.469Z,23.10
2019-04-23T16:56:13.833Z,22.90
2019-04-23T17:01:08.743Z,22.60
2019-04-23T17:06:10.600Z,22.30
2019-04-23T17:13:39.465Z,22.30
2019-04-23T17:16:15.307Z,22.30
2019-04-23T17:18:49.649Z,22.00
2019-04-23T17:21:18.673Z,21.90
2019-04-23T17:29:00.067Z,21.70
2019-04-23T17:34:12.612Z,21.60
2019-04-23T17:36:32.012Z,21.60
2019-04-23T17:39:18.238Z,21.60
2019-04-23T17:42:09.422Z,21.50
2019-04-23T17:47:07.046Z,21.40
2019-04-23T17:49:42.463Z,21.40
2019-04-23T17:52:14.674Z,21.30
2019-04-23T17:54:45.216Z,21.20
2019-04-23T18:12:45.343Z,20.80
2019-04-23T18:15:15.584Z,20.60
2019-04-23T18:46:22.966Z,20.00
2019-04-23T19:03:53.482Z,19.30
2019-04-23T19:13:55.742Z,19.10
2019-04-23T19:17:29.178Z,19.10
2019-04-23T19:22:28.438Z,19.00
2019-04-23T19:28:52.535Z,18.90
2019-04-23T19:31:33.257Z,18.80
2019-04-23T19:34:30.316Z,18.80
2019-04-23T19:37:34.856Z,18.80
2019-04-23T19:40:18.654Z,18.70
2019-04-23T19:43:11.500Z,18.70
2019-04-23T19:52:35.031Z,18.40
2019-04-23T19:57:54.927Z,18.40
2019-04-23T20:00:44.427Z,18.40
2019-04-23T20:05:27.882Z,18.30
2019-04-23T20:08:02.330Z,18.30
2019-04-23T20:10:28.187Z,18.30
2019-04-23T20:13:08.021Z,18.20
2019-04-23T20:15:51.115Z,18.20
2019-04-23T20:18:26.927Z,18.20
2019-04-23T20:20:55.101Z,18.10
2019-04-23T20:23:55.903Z,18.00
2019-04-23T20:29:14.824Z,18.00
2019-04-23T20:34:39.757Z,18.00
2019-04-23T20:37:00.649Z,17.90
2019-04-23T20:39:45.532Z,17.90
2019-04-23T20:44:57.120Z,17.80
2019-04-23T20:50:58.914Z,17.70
2019-04-23T20:54:08.826Z,17.60
2019-04-23T20:56:56.323Z,17.60
2019-04-23T20:59:54.902Z,17.60
2019-04-23T21:02:58.627Z,17.50
2019-04-23T21:05:21.570Z,17.50
2019-04-23T21:18:48.383Z,17.30
2019-04-23T21:21:46.757Z,17.30
2019-04-23T21:24:29.348Z,17.30
2019-04-23T21:28:05.988Z,17.30
2019-04-23T21:30:58.934Z,17.30
2019-04-23T21:33:49.951Z,17.30
2019-04-23T21:40:18.904Z,17.10
2019-04-23T21:46:28.122Z,17.10
2019-04-23T21:54:00.022Z,16.90
2019-04-23T21:56:37.119Z,16.90
2019-04-23T22:04:39.973Z,16.80
2019-04-23T22:07:19.427Z,16.80
2019-04-23T22:09:57.707Z,16.80
2019-04-23T22:13:09.507Z,16.70
2019-04-23T22:15:45.184Z,16.70
2019-04-23T22:18:05.812Z,16.70
2019-04-23T22:20:55.875Z,16.60
2019-04-23T22:23:34.181Z,16.60
2019-04-23T22:31:33.769Z,16.50
2019-04-23T22:34:09.223Z,15.60
2019-04-23T22:37:01.750Z,16.40
2019-04-23T22:39:56.731Z,16.50
2019-04-23T22:42:54.466Z,16.40
2019-04-23T22:48:04.256Z,16.30
2019-04-23T22:50:59.318Z,16.30
2019-04-23T22:53:41.716Z,16.30
2019-04-23T22:56:03.223Z,16.30
2019-04-23T22:59:05.589Z,16.20
2019-04-23T23:01:43.179Z,16.20
2019-04-23T23:04:51.600Z,16.20
2019-04-23T23:07:28.619Z,16.20
2019-04-23T23:18:58.531Z,15.40
2019-04-23T23:21:36.423Z,15.90
2019-04-23T23:24:00.039Z,15.90
2019-04-23T23:26:33.635Z,15.90
2019-04-23T23:29:09.017Z,15.80
2019-04-23T23:31:51.911Z,15.80
2019-04-23T23:34:15.610Z,15.80
2019-04-23T23:36:59.025Z,15.80
2019-04-23T23:41:48.846Z,15.70
2019-04-23T23:44:33.431Z,15.70
2019-04-23T23:49:24.050Z,15.70
2019-04-23T23:51:57.828Z,15.60
2019-04-23T23:54:17.649Z,15.60
2019-04-23T23:57:07.927Z,15.60
